sensor_id;sensor_type;location;lat;lon;timestamp;pressure;altitude;pressure_sealevel;temperature;humidity
46722;BME280;32455;43.430;23.136;2023-03-14T00:01:43;98289.44;;;-0.26;100.00
46722;BME280;32455;43.430;23.136;2023-03-14T00:04:30;98306.72;;;-0.14;100.00
46722;BME280;32455;43.430;23.136;2023-03-14T00:07:15;98293.16;;;-0.19;100.00
46722;BME280;32455;43.430;23.136;2023-03-14T00:10:07;98292.59;;;-0.05;100.00
46722;BME280;32455;43.430;23.136;2023-03-14T00:12:53;98303.91;;;0.23;98.89
46722;BME280;32455;43.430;23.136;2023-03-14T00:15:39;98310.34;;;0.47;96.42
46722;BME280;32455;43.430;23.136;2023-03-14T00:18:24;98311.97;;;0.40;96.35
46722;BME280;32455;43.430;23.136;2023-03-14T00:21:11;98308.03;;;0.00;98.48
46722;BME280;32455;43.430;23.136;2023-03-14T00:23:56;98298.72;;;0.14;97.79
46722;BME280;32455;43.430;23.136;2023-03-14T00:26:41;98292.59;;;0.13;97.99
46722;BME280;32455;43.430;23.136;2023-03-14T00:29:27;98268.88;;;-0.40;100.00
46722;BME280;32455;43.430;23.136;2023-03-14T00:32:13;98263.91;;;-0.26;100.00
46722;BME280;32455;43.430;23.136;2023-03-14T00:34:58;98287.41;;;0.30;98.01
46722;BME280;32455;43.430;23.136;2023-03-14T00:37:43;98287.13;;;0.33;96.33
46722;BME280;32455;43.430;23.136;2023-03-14T00:40:29;98281.16;;;-0.13;100.00
46722;BME280;32455;43.430;23.136;2023-03-14T00:43:14;98263.94;;;-0.17;100.00
46722;BME280;32455;43.430;23.136;2023-03-14T00:46:00;98252.38;;;-0.42;100.00
46722;BME280;32455;43.430;23.136;2023-03-14T00:48:45;98241.03;;;-0.70;100.00
46722;BME280;32455;43.430;23.136;2023-03-14T00:51:30;98228.44;;;-0.77;100.00
46722;BME280;32455;43.430;23.136;2023-03-14T00:54:20;98236.50;;;-0.60;100.00
46722;BME280;32455;43.430;23.136;2023-03-14T00:57:04;98235.25;;;-0.38;100.00
46722;BME280;32455;43.430;23.136;2023-03-14T00:59:50;98213.97;;;-0.37;100.00
46722;BME280;32455;43.430;23.136;2023-03-14T01:02:37;98235.75;;;-0.17;100.00
46722;BME280;32455;43.430;23.136;2023-03-14T01:05:22;98235.72;;;0.01;100.00
46722;BME280;32455;43.430;23.136;2023-03-14T01:08:08;98225.28;;;-0.62;100.00
46722;BME280;32455;43.430;23.136;2023-03-14T01:10:54;98198.38;;;-0.84;100.00
46722;BME280;32455;43.430;23.136;2023-03-14T01:13:40;98215.84;;;-0.83;100.00
46722;BME280;32455;43.430;23.136;2023-03-14T01:16:26;98196.00;;;-0.69;100.00
46722;BME280;32455;43.430;23.136;2023-03-14T01:19:12;98201.69;;;-0.64;100.00
46722;BME280;32455;43.430;23.136;2023-03-14T01:21:57;98191.44;;;-0.67;100.00
46722;BME280;32455;43.430;23.136;2023-03-14T01:24:43;98197.97;;;-0.35;100.00
46722;BME280;32455;43.430;23.136;2023-03-14T01:27:29;98184.94;;;-0.55;100.00
46722;BME280;32455;43.430;23.136;2023-03-14T01:30:14;98184.41;;;-0.58;100.00
46722;BME280;32455;43.430;23.136;2023-03-14T01:33:00;98169.06;;;-0.81;100.00
46722;BME280;32455;43.430;23.136;2023-03-14T01:35:45;98181.91;;;-0.78;100.00
46722;BME280;32455;43.430;23.136;2023-03-14T01:38:32;98171.97;;;-0.84;100.00
46722;BME280;32455;43.430;23.136;2023-03-14T01:41:20;98179.97;;;-0.58;100.00
46722;BME280;32455;43.430;23.136;2023-03-14T01:44:09;98185.09;;;-0.74;100.00
46722;BME280;32455;43.430;23.136;2023-03-14T01:46:54;98172.59;;;-0.72;100.00
46722;BME280;32455;43.430;23.136;2023-03-14T01:49:39;98178.75;;;-0.45;100.00
46722;BME280;32455;43.430;23.136;2023-03-14T01:52:46;98165.84;;;-0.48;100.00
46722;BME280;32455;43.430;23.136;2023-03-14T01:55:33;98166.59;;;-0.56;100.00
46722;BME280;32455;43.430;23.136;2023-03-14T01:58:19;98143.03;;;-0.76;100.00
46722;BME280;32455;43.430;23.136;2023-03-14T02:01:06;98168.50;;;-0.66;100.00
46722;BME280;32455;43.430;23.136;2023-03-14T02:03:59;98177.22;;;-0.48;100.00
46722;BME280;32455;43.430;23.136;2023-03-14T02:10:03;98176.38;;;-0.31;100.00
46722;BME280;32455;43.430;23.136;2023-03-14T02:12:49;98185.66;;;-0.27;100.00
46722;BME280;32455;43.430;23.136;2023-03-14T02:15:35;98188.47;;;-0.02;100.00
46722;BME280;32455;43.430;23.136;2023-03-14T02:18:21;98188.69;;;-0.39;100.00
46722;BME280;32455;43.430;23.136;2023-03-14T02:21:17;98171.28;;;-1.04;100.00
46722;BME280;32455;43.430;23.136;2023-03-14T02:27:29;98174.53;;;-0.56;100.00
46722;BME280;32455;43.430;23.136;2023-03-14T02:30:19;98155.63;;;-1.05;100.00
46722;BME280;32455;43.430;23.136;2023-03-14T02:33:08;98180.72;;;-1.01;100.00
46722;BME280;32455;43.430;23.136;2023-03-14T02:36:02;98188.06;;;-0.77;100.00
46722;BME280;32455;43.430;23.136;2023-03-14T02:39:15;98165.88;;;-1.20;100.00
46722;BME280;32455;43.430;23.136;2023-03-14T02:42:05;98180.91;;;-1.12;100.00
46722;BME280;32455;43.430;23.136;2023-03-14T02:44:54;98190.72;;;-1.05;100.00
46722;BME280;32455;43.430;23.136;2023-03-14T02:47:43;98188.53;;;-1.09;100.00
46722;BME280;32455;43.430;23.136;2023-03-14T02:50:30;98178.06;;;-1.01;100.00
46722;BME280;32455;43.430;23.136;2023-03-14T02:53:20;98194.91;;;-0.84;100.00
46722;BME280;32455;43.430;23.136;2023-03-14T02:56:06;98177.16;;;-1.10;100.00
46722;BME280;32455;43.430;23.136;2023-03-14T02:58:50;98195.25;;;-1.15;100.00
46722;BME280;32455;43.430;23.136;2023-03-14T03:01:36;98202.56;;;-0.91;100.00
46722;BME280;32455;43.430;23.136;2023-03-14T03:04:21;98196.72;;;-0.85;100.00
46722;BME280;32455;43.430;23.136;2023-03-14T03:07:06;98190.16;;;-0.81;100.00
46722;BME280;32455;43.430;23.136;2023-03-14T03:09:51;98189.09;;;-0.88;100.00
46722;BME280;32455;43.430;23.136;2023-03-14T03:12:37;98209.19;;;-0.87;100.00
46722;BME280;32455;43.430;23.136;2023-03-14T03:15:23;98208.38;;;-0.87;100.00
46722;BME280;32455;43.430;23.136;2023-03-14T03:18:09;98200.63;;;-1.07;100.00
46722;BME280;32455;43.430;23.136;2023-03-14T03:20:54;98195.09;;;-1.13;100.00
46722;BME280;32455;43.430;23.136;2023-03-14T03:23:39;98170.69;;;-1.15;100.00
46722;BME280;32455;43.430;23.136;2023-03-14T03:26:25;98189.91;;;-0.87;100.00
46722;BME280;32455;43.430;23.136;2023-03-14T03:29:10;98171.34;;;-1.13;100.00
46722;BME280;32455;43.430;23.136;2023-03-14T03:31:56;98175.66;;;-0.94;100.00
46722;BME280;32455;43.430;23.136;2023-03-14T03:34:41;98177.31;;;-1.11;100.00
46722;BME280;32455;43.430;23.136;2023-03-14T03:37:27;98170.25;;;-1.11;100.00
46722;BME280;32455;43.430;23.136;2023-03-14T03:40:13;98172.69;;;-1.27;100.00
46722;BME280;32455;43.430;23.136;2023-03-14T03:42:58;98158.09;;;-1.21;100.00
46722;BME280;32455;43.430;23.136;2023-03-14T03:45:44;98166.91;;;-0.95;100.00
46722;BME280;32455;43.430;23.136;2023-03-14T03:48:30;98164.44;;;-0.79;100.00
46722;BME280;32455;43.430;23.136;2023-03-14T03:51:16;98158.19;;;-0.78;100.00
46722;BME280;32455;43.430;23.136;2023-03-14T03:54:01;98139.13;;;-0.89;100.00
46722;BME280;32455;43.430;23.136;2023-03-14T03:56:46;98148.78;;;-0.80;100.00
46722;BME280;32455;43.430;23.136;2023-03-14T03:59:31;98148.78;;;-0.80;100.00
46722;BME280;32455;43.430;23.136;2023-03-14T04:02:17;98150.78;;;-0.56;100.00
46722;BME280;32455;43.430;23.136;2023-03-14T04:05:15;98150.16;;;-0.32;100.00
46722;BME280;32455;43.430;23.136;2023-03-14T04:08:01;98144.03;;;-0.33;100.00
46722;BME280;32455;43.430;23.136;2023-03-14T04:10:47;98144.34;;;-0.36;100.00
46722;BME280;32455;43.430;23.136;2023-03-14T04:13:32;98145.13;;;-0.17;100.00
46722;BME280;32455;43.430;23.136;2023-03-14T04:16:20;98133.34;;;-0.49;100.00
46722;BME280;32455;43.430;23.136;2023-03-14T04:19:06;98120.88;;;-0.83;100.00
46722;BME280;32455;43.430;23.136;2023-03-14T04:21:51;98137.78;;;-0.93;100.00
46722;BME280;32455;43.430;23.136;2023-03-14T04:24:36;98133.03;;;-0.90;100.00
46722;BME280;32455;43.430;23.136;2023-03-14T04:27:22;98129.91;;;-1.03;100.00
46722;BME280;32455;43.430;23.136;2023-03-14T04:30:08;98130.91;;;-1.04;100.00
46722;BME280;32455;43.430;23.136;2023-03-14T04:32:53;98126.31;;;-1.02;100.00
46722;BME280;32455;43.430;23.136;2023-03-14T04:35:39;98132.13;;;-0.98;100.00
46722;BME280;32455;43.430;23.136;2023-03-14T04:38:24;98137.78;;;-0.93;100.00
46722;BME280;32455;43.430;23.136;2023-03-14T04:41:09;98120.28;;;-1.12;100.00
46722;BME280;32455;43.430;23.136;2023-03-14T04:43:54;98143.19;;;-1.13;100.00
46722;BME280;32455;43.430;23.136;2023-03-14T04:46:39;98147.00;;;-1.07;100.00
46722;BME280;32455;43.430;23.136;2023-03-14T04:49:24;98147.56;;;-0.86;100.00
46722;BME280;32455;43.430;23.136;2023-03-14T04:52:09;98148.63;;;-0.96;100.00
46722;BME280;32455;43.430;23.136;2023-03-14T04:54:54;98141.34;;;-1.30;100.00
46722;BME280;32455;43.430;23.136;2023-03-14T04:57:40;98135.34;;;-1.22;100.00
46722;BME280;32455;43.430;23.136;2023-03-14T05:00:25;98146.25;;;-1.17;100.00
46722;BME280;32455;43.430;23.136;2023-03-14T05:03:11;98131.63;;;-1.30;100.00
46722;BME280;32455;43.430;23.136;2023-03-14T05:05:56;98147.34;;;-0.92;100.00
46722;BME280;32455;43.430;23.136;2023-03-14T05:08:43;98132.97;;;-0.98;100.00
46722;BME280;32455;43.430;23.136;2023-03-14T05:11:30;98141.63;;;-0.88;100.00
46722;BME280;32455;43.430;23.136;2023-03-14T05:14:15;98150.69;;;-0.64;100.00
46722;BME280;32455;43.430;23.136;2023-03-14T05:17:01;98157.72;;;-0.55;100.00
46722;BME280;32455;43.430;23.136;2023-03-14T05:19:46;98131.78;;;-0.78;100.00
46722;BME280;32455;43.430;23.136;2023-03-14T05:22:32;98149.19;;;-0.49;100.00
46722;BME280;32455;43.430;23.136;2023-03-14T05:25:18;98149.47;;;-0.34;100.00
46722;BME280;32455;43.430;23.136;2023-03-14T05:28:03;98144.88;;;-0.32;100.00
46722;BME280;32455;43.430;23.136;2023-03-14T05:30:49;98139.41;;;-0.31;100.00
46722;BME280;32455;43.430;23.136;2023-03-14T05:33:34;98158.59;;;-0.29;100.00
46722;BME280;32455;43.430;23.136;2023-03-14T05:36:20;98155.31;;;-0.22;100.00
46722;BME280;32455;43.430;23.136;2023-03-14T05:39:05;98170.44;;;-0.07;100.00
46722;BME280;32455;43.430;23.136;2023-03-14T05:41:50;98161.59;;;0.37;100.00
46722;BME280;32455;43.430;23.136;2023-03-14T05:44:36;98152.16;;;0.77;100.00
46722;BME280;32455;43.430;23.136;2023-03-14T05:47:21;98161.66;;;1.04;100.00
46722;BME280;32455;43.430;23.136;2023-03-14T05:50:07;98157.09;;;1.46;100.00
46722;BME280;32455;43.430;23.136;2023-03-14T05:52:53;98153.41;;;1.88;97.18
46722;BME280;32455;43.430;23.136;2023-03-14T05:55:39;98159.47;;;2.21;94.61
46722;BME280;32455;43.430;23.136;2023-03-14T05:58:24;98161.03;;;2.47;93.37
46722;BME280;32455;43.430;23.136;2023-03-14T06:01:09;98149.63;;;2.38;93.06
46722;BME280;32455;43.430;23.136;2023-03-14T06:03:54;98153.09;;;2.78;91.37
46722;BME280;32455;43.430;23.136;2023-03-14T06:06:40;98155.91;;;2.85;87.08
46722;BME280;32455;43.430;23.136;2023-03-14T06:09:25;98135.69;;;3.07;88.04
46722;BME280;32455;43.430;23.136;2023-03-14T06:12:11;98143.25;;;3.41;85.13
46722;BME280;32455;43.430;23.136;2023-03-14T06:14:56;98153.16;;;3.70;82.50
46722;BME280;32455;43.430;23.136;2023-03-14T06:17:41;98140.81;;;3.77;83.20
46722;BME280;32455;43.430;23.136;2023-03-14T06:20:27;98143.28;;;3.79;81.15
46722;BME280;32455;43.430;23.136;2023-03-14T06:23:11;98132.59;;;4.01;80.65
46722;BME280;32455;43.430;23.136;2023-03-14T06:25:56;98145.00;;;4.24;79.79
46722;BME280;32455;43.430;23.136;2023-03-14T06:28:41;98132.16;;;4.27;76.22
46722;BME280;32455;43.430;23.136;2023-03-14T06:31:27;98146.38;;;4.35;78.98
46722;BME280;32455;43.430;23.136;2023-03-14T06:34:13;98127.09;;;4.47;78.14
46722;BME280;32455;43.430;23.136;2023-03-14T06:36:58;98148.25;;;4.70;76.32
46722;BME280;32455;43.430;23.136;2023-03-14T06:39:44;98131.41;;;4.63;76.94
46722;BME280;32455;43.430;23.136;2023-03-14T06:42:30;98106.97;;;4.74;76.79
46722;BME280;32455;43.430;23.136;2023-03-14T06:45:16;98115.94;;;4.88;76.88
46722;BME280;32455;43.430;23.136;2023-03-14T06:48:02;98117.91;;;5.01;75.40
46722;BME280;32455;43.430;23.136;2023-03-14T06:50:51;98115.84;;;4.82;73.42
46722;BME280;32455;43.430;23.136;2023-03-14T06:53:36;98133.72;;;5.24;75.46
46722;BME280;32455;43.430;23.136;2023-03-14T06:56:21;98124.13;;;5.08;75.38
46722;BME280;32455;43.430;23.136;2023-03-14T06:59:07;98119.16;;;5.05;75.69
46722;BME280;32455;43.430;23.136;2023-03-14T07:01:52;98121.84;;;5.05;77.13
46722;BME280;32455;43.430;23.136;2023-03-14T07:04:38;98133.84;;;5.37;76.88
46722;BME280;32455;43.430;23.136;2023-03-14T07:07:23;98125.78;;;5.31;76.96
46722;BME280;32455;43.430;23.136;2023-03-14T07:10:09;98126.84;;;5.79;74.87
46722;BME280;32455;43.430;23.136;2023-03-14T07:12:55;98123.97;;;5.81;73.90
46722;BME280;32455;43.430;23.136;2023-03-14T07:15:40;98120.84;;;6.26;74.10
46722;BME280;32455;43.430;23.136;2023-03-14T07:18:25;98111.88;;;6.41;73.58
46722;BME280;32455;43.430;23.136;2023-03-14T07:21:11;98104.00;;;5.70;74.84
46722;BME280;32455;43.430;23.136;2023-03-14T07:23:56;98099.13;;;6.36;72.74
46722;BME280;32455;43.430;23.136;2023-03-14T07:26:42;98101.09;;;6.62;72.53
46722;BME280;32455;43.430;23.136;2023-03-14T07:29:27;98099.06;;;6.71;71.27
46722;BME280;32455;43.430;23.136;2023-03-14T07:32:13;98107.91;;;6.71;70.90
46722;BME280;32455;43.430;23.136;2023-03-14T07:34:59;98102.25;;;7.01;71.30
46722;BME280;32455;43.430;23.136;2023-03-14T07:37:45;98100.19;;;6.90;72.04
46722;BME280;32455;43.430;23.136;2023-03-14T07:40:30;98089.50;;;6.96;72.44
46722;BME280;32455;43.430;23.136;2023-03-14T07:43:16;98107.22;;;7.04;70.19
46722;BME280;32455;43.430;23.136;2023-03-14T07:46:02;98090.78;;;7.14;70.25
46722;BME280;32455;43.430;23.136;2023-03-14T07:48:47;98098.22;;;6.57;69.91
46722;BME280;32455;43.430;23.136;2023-03-14T07:51:32;98097.13;;;6.99;70.89
46722;BME280;32455;43.430;23.136;2023-03-14T07:54:18;98086.69;;;7.31;70.95
46722;BME280;32455;43.430;23.136;2023-03-14T07:57:03;98090.22;;;7.51;69.10
46722;BME280;32455;43.430;23.136;2023-03-14T07:59:48;98088.16;;;7.73;68.15
46722;BME280;32455;43.430;23.136;2023-03-14T08:02:34;98090.03;;;7.80;66.98
46722;BME280;32455;43.430;23.136;2023-03-14T08:05:20;98095.75;;;8.03;66.93
46722;BME280;32455;43.430;23.136;2023-03-14T08:08:05;98098.84;;;8.07;67.89
46722;BME280;32455;43.430;23.136;2023-03-14T08:10:51;98096.19;;;7.93;68.58
46722;BME280;32455;43.430;23.136;2023-03-14T08:13:37;98080.91;;;8.20;67.01
46722;BME280;32455;43.430;23.136;2023-03-14T08:16:22;98082.97;;;8.18;66.32
46722;BME280;32455;43.430;23.136;2023-03-14T08:19:08;98069.59;;;8.12;67.47
46722;BME280;32455;43.430;23.136;2023-03-14T08:21:53;98074.94;;;8.12;67.75
46722;BME280;32455;43.430;23.136;2023-03-14T08:24:39;98074.53;;;8.15;66.41
46722;BME280;32455;43.430;23.136;2023-03-14T08:27:26;98066.66;;;8.40;66.13
46722;BME280;32455;43.430;23.136;2023-03-14T08:30:14;98066.56;;;7.88;67.47
46722;BME280;32455;43.430;23.136;2023-03-14T08:33:00;98070.53;;;8.57;65.44
46722;BME280;32455;43.430;23.136;2023-03-14T08:35:45;98072.53;;;8.68;62.43
46722;BME280;32455;43.430;23.136;2023-03-14T08:38:31;98045.00;;;8.86;64.06
46722;BME280;32455;43.430;23.136;2023-03-14T08:41:16;98064.31;;;8.63;63.10
46722;BME280;32455;43.430;23.136;2023-03-14T08:44:02;98066.09;;;8.76;62.87
46722;BME280;32455;43.430;23.136;2023-03-14T08:46:47;98059.25;;;8.87;60.49
46722;BME280;32455;43.430;23.136;2023-03-14T08:49:32;98059.19;;;9.00;59.95
46722;BME280;32455;43.430;23.136;2023-03-14T08:52:18;98047.75;;;9.11;59.40
46722;BME280;32455;43.430;23.136;2023-03-14T08:55:03;98034.72;;;9.21;59.64
46722;BME280;32455;43.430;23.136;2023-03-14T08:57:49;98029.25;;;9.03;59.68
46722;BME280;32455;43.430;23.136;2023-03-14T09:00:34;98021.09;;;9.23;59.69
46722;BME280;32455;43.430;23.136;2023-03-14T09:03:20;98007.19;;;9.33;59.52
46722;BME280;32455;43.430;23.136;2023-03-14T09:06:09;98005.19;;;9.71;59.57
46722;BME280;32455;43.430;23.136;2023-03-14T09:08:56;98015.50;;;9.74;58.10
46722;BME280;32455;43.430;23.136;2023-03-14T09:11:43;98002.34;;;9.66;58.14
46722;BME280;32455;43.430;23.136;2023-03-14T09:14:28;97996.56;;;9.69;56.87
46722;BME280;32455;43.430;23.136;2023-03-14T09:17:14;98002.31;;;9.91;57.26
46722;BME280;32455;43.430;23.136;2023-03-14T09:20:00;97994.78;;;10.00;57.48
46722;BME280;32455;43.430;23.136;2023-03-14T09:22:46;97980.19;;;9.96;56.69
46722;BME280;32455;43.430;23.136;2023-03-14T09:25:32;97985.50;;;10.02;57.56
46722;BME280;32455;43.430;23.136;2023-03-14T09:28:18;97979.41;;;10.32;57.81
46722;BME280;32455;43.430;23.136;2023-03-14T09:31:07;97976.38;;;10.22;54.82
46722;BME280;32455;43.430;23.136;2023-03-14T09:33:52;97972.94;;;10.15;55.04
46722;BME280;32455;43.430;23.136;2023-03-14T09:36:38;97966.84;;;10.26;55.78
46722;BME280;32455;43.430;23.136;2023-03-14T09:39:24;97952.06;;;10.35;55.22
46722;BME280;32455;43.430;23.136;2023-03-14T09:42:13;97946.16;;;10.45;55.46
46722;BME280;32455;43.430;23.136;2023-03-14T09:45:04;97961.06;;;10.59;53.25
46722;BME280;32455;43.430;23.136;2023-03-14T09:47:50;97949.69;;;10.57;53.23
46722;BME280;32455;43.430;23.136;2023-03-14T09:50:43;97965.75;;;10.64;52.56
46722;BME280;32455;43.430;23.136;2023-03-14T09:53:45;97960.69;;;10.19;52.97
46722;BME280;32455;43.430;23.136;2023-03-14T09:56:32;97958.56;;;10.58;54.71
46722;BME280;32455;43.430;23.136;2023-03-14T09:59:19;97942.47;;;10.58;54.52
46722;BME280;32455;43.430;23.136;2023-03-14T10:02:20;97954.25;;;10.57;55.88
46722;BME280;32455;43.430;23.136;2023-03-14T10:05:17;97951.69;;;10.62;56.89
46722;BME280;32455;43.430;23.136;2023-03-14T10:08:05;97939.66;;;10.94;55.70
46722;BME280;32455;43.430;23.136;2023-03-14T10:10:50;97927.06;;;11.07;54.69
46722;BME280;32455;43.430;23.136;2023-03-14T10:13:53;97929.75;;;11.07;54.43
46722;BME280;32455;43.430;23.136;2023-03-14T10:16:48;97917.00;;;11.25;54.60
46722;BME280;32455;43.430;23.136;2023-03-14T10:19:34;97910.69;;;11.08;53.37
46722;BME280;32455;43.430;23.136;2023-03-14T10:22:23;97923.31;;;11.19;54.66
46722;BME280;32455;43.430;23.136;2023-03-14T10:25:36;97914.88;;;11.04;55.70
46722;BME280;32455;43.430;23.136;2023-03-14T10:28:47;97899.69;;;11.21;56.60
46722;BME280;32455;43.430;23.136;2023-03-14T10:31:51;97887.28;;;11.67;53.64
46722;BME280;32455;43.430;23.136;2023-03-14T10:34:38;97895.81;;;11.64;52.79
46722;BME280;32455;43.430;23.136;2023-03-14T10:37:26;97888.34;;;11.43;52.59
46722;BME280;32455;43.430;23.136;2023-03-14T10:40:13;97858.41;;;11.51;53.88
46722;BME280;32455;43.430;23.136;2023-03-14T10:43:00;97860.25;;;11.62;52.86
46722;BME280;32455;43.430;23.136;2023-03-14T10:45:54;97856.16;;;11.83;50.12
46722;BME280;32455;43.430;23.136;2023-03-14T10:48:43;97840.19;;;11.82;51.01
46722;BME280;32455;43.430;23.136;2023-03-14T10:51:31;97835.19;;;11.85;49.87
46722;BME280;32455;43.430;23.136;2023-03-14T10:54:24;97815.44;;;11.56;51.24
46722;BME280;32455;43.430;23.136;2023-03-14T10:57:11;97811.47;;;11.99;51.40
46722;BME280;32455;43.430;23.136;2023-03-14T10:59:57;97808.91;;;12.04;49.83
46722;BME280;32455;43.430;23.136;2023-03-14T11:05:46;97805.31;;;12.15;49.63
46722;BME280;32455;43.430;23.136;2023-03-14T11:09:02;97797.59;;;12.19;48.65
46722;BME280;32455;43.430;23.136;2023-03-14T11:11:51;97785.88;;;12.25;50.17
46722;BME280;32455;43.430;23.136;2023-03-14T11:14:43;97771.56;;;12.41;50.99
46722;BME280;32455;43.430;23.136;2023-03-14T11:21:05;97763.50;;;12.58;48.87
46722;BME280;32455;43.430;23.136;2023-03-14T11:29:45;97747.72;;;12.67;49.33
46722;BME280;32455;43.430;23.136;2023-03-14T11:32:50;97742.25;;;12.62;47.66
46722;BME280;32455;43.430;23.136;2023-03-14T11:35:59;97736.44;;;12.87;47.99
46722;BME280;32455;43.430;23.136;2023-03-14T11:38:57;97712.72;;;12.89;48.60
46722;BME280;32455;43.430;23.136;2023-03-14T11:41:52;97717.03;;;13.07;45.44
46722;BME280;32455;43.430;23.136;2023-03-14T11:44:39;97719.50;;;12.91;45.39
46722;BME280;32455;43.430;23.136;2023-03-14T11:50:23;97694.38;;;12.86;46.42
46722;BME280;32455;43.430;23.136;2023-03-14T11:53:14;97696.06;;;13.14;46.86
46722;BME280;32455;43.430;23.136;2023-03-14T11:56:01;97686.91;;;13.15;46.68
46722;BME280;32455;43.430;23.136;2023-03-14T11:58:55;97687.34;;;13.23;47.26
46722;BME280;32455;43.430;23.136;2023-03-14T12:02:03;97681.59;;;13.20;46.12
46722;BME280;32455;43.430;23.136;2023-03-14T12:10:58;97661.97;;;13.24;48.95
46722;BME280;32455;43.430;23.136;2023-03-14T12:13:50;97668.47;;;13.07;47.98
46722;BME280;32455;43.430;23.136;2023-03-14T12:16:38;97650.84;;;12.99;46.89
46722;BME280;32455;43.430;23.136;2023-03-14T12:19:25;97651.34;;;12.96;47.27
46722;BME280;32455;43.430;23.136;2023-03-14T12:22:26;97638.72;;;13.01;48.59
46722;BME280;32455;43.430;23.136;2023-03-14T12:25:23;97629.16;;;13.33;45.77
46722;BME280;32455;43.430;23.136;2023-03-14T12:28:22;97627.25;;;13.33;46.14
46722;BME280;32455;43.430;23.136;2023-03-14T12:37:26;97624.66;;;13.43;46.73
46722;BME280;32455;43.430;23.136;2023-03-14T12:40:18;97608.97;;;13.40;46.91
46722;BME280;32455;43.430;23.136;2023-03-14T12:43:25;97617.31;;;13.39;45.86
46722;BME280;32455;43.430;23.136;2023-03-14T12:46:26;97593.84;;;13.39;45.44
46722;BME280;32455;43.430;23.136;2023-03-14T12:49:10;97609.03;;;13.45;45.14
46722;BME280;32455;43.430;23.136;2023-03-14T12:51:59;97612.59;;;13.51;45.95
46722;BME280;32455;43.430;23.136;2023-03-14T12:58:16;97594.09;;;13.65;45.77
46722;BME280;32455;43.430;23.136;2023-03-14T13:01:06;97588.03;;;13.52;45.82
46722;BME280;32455;43.430;23.136;2023-03-14T13:04:11;97578.66;;;13.60;45.73
46722;BME280;32455;43.430;23.136;2023-03-14T13:06:59;97577.56;;;13.88;44.91
46722;BME280;32455;43.430;23.136;2023-03-14T13:09:57;97559.69;;;13.50;44.97
46722;BME280;32455;43.430;23.136;2023-03-14T13:15:42;97543.50;;;13.50;45.57
46722;BME280;32455;43.430;23.136;2023-03-14T13:18:33;97555.78;;;13.68;46.16
46722;BME280;32455;43.430;23.136;2023-03-14T13:21:24;97544.88;;;13.90;45.62
46722;BME280;32455;43.430;23.136;2023-03-14T13:24:40;97550.56;;;13.88;45.40
46722;BME280;32455;43.430;23.136;2023-03-14T13:27:25;97535.94;;;13.84;46.71
46722;BME280;32455;43.430;23.136;2023-03-14T13:30:27;97538.78;;;13.67;47.33
46722;BME280;32455;43.430;23.136;2023-03-14T13:33:17;97526.03;;;13.58;47.96
46722;BME280;32455;43.430;23.136;2023-03-14T13:36:04;97524.97;;;13.64;47.35
46722;BME280;32455;43.430;23.136;2023-03-14T13:38:56;97518.44;;;13.92;46.51
46722;BME280;32455;43.430;23.136;2023-03-14T13:41:43;97516.78;;;13.91;46.77
46722;BME280;32455;43.430;23.136;2023-03-14T13:44:34;97508.91;;;13.79;46.58
46722;BME280;32455;43.430;23.136;2023-03-14T13:47:23;97497.97;;;13.64;48.10
46722;BME280;32455;43.430;23.136;2023-03-14T13:50:16;97497.69;;;13.60;48.36
46722;BME280;32455;43.430;23.136;2023-03-14T13:53:03;97488.34;;;13.78;48.03
46722;BME280;32455;43.430;23.136;2023-03-14T13:55:49;97480.88;;;13.53;48.81
46722;BME280;32455;43.430;23.136;2023-03-14T13:58:37;97482.75;;;13.47;47.73
46722;BME280;32455;43.430;23.136;2023-03-14T14:01:26;97475.72;;;13.46;47.84
46722;BME280;32455;43.430;23.136;2023-03-14T14:04:19;97461.84;;;13.33;48.55
46722;BME280;32455;43.430;23.136;2023-03-14T14:07:13;97443.28;;;13.36;47.97
46722;BME280;32455;43.430;23.136;2023-03-14T14:10:03;97439.84;;;13.51;48.65
46722;BME280;32455;43.430;23.136;2023-03-14T14:12:54;97439.66;;;13.58;48.53
46722;BME280;32455;43.430;23.136;2023-03-14T14:15:48;97443.72;;;13.65;48.21
46722;BME280;32455;43.430;23.136;2023-03-14T14:18:35;97424.66;;;13.08;51.55
46722;BME280;32455;43.430;23.136;2023-03-14T14:21:21;97424.41;;;13.14;51.79
46722;BME280;32455;43.430;23.136;2023-03-14T14:24:12;97419.63;;;13.21;49.12
46722;BME280;32455;43.430;23.136;2023-03-14T14:27:01;97413.09;;;13.12;50.64
46722;BME280;32455;43.430;23.136;2023-03-14T14:30:43;97405.50;;;13.09;49.33
46722;BME280;32455;43.430;23.136;2023-03-14T14:33:42;97404.78;;;12.87;50.85
46722;BME280;32455;43.430;23.136;2023-03-14T14:36:31;97406.97;;;12.90;51.34
46722;BME280;32455;43.430;23.136;2023-03-14T14:39:24;97407.22;;;12.88;51.61
46722;BME280;32455;43.430;23.136;2023-03-14T14:42:15;97388.34;;;12.88;50.72
46722;BME280;32455;43.430;23.136;2023-03-14T14:45:02;97372.97;;;12.89;51.07
46722;BME280;32455;43.430;23.136;2023-03-14T14:51:00;97381.19;;;13.04;49.90
46722;BME280;32455;43.430;23.136;2023-03-14T14:53:46;97370.34;;;12.94;51.02
46722;BME280;32455;43.430;23.136;2023-03-14T14:56:35;97372.56;;;13.02;50.14
46722;BME280;32455;43.430;23.136;2023-03-14T14:59:28;97367.97;;;13.02;49.57
46722;BME280;32455;43.430;23.136;2023-03-14T15:05:19;97362.25;;;12.94;50.26
46722;BME280;32455;43.430;23.136;2023-03-14T15:08:11;97360.56;;;12.88;51.40
46722;BME280;32455;43.430;23.136;2023-03-14T15:10:57;97355.13;;;12.83;50.68
46722;BME280;32455;43.430;23.136;2023-03-14T15:13:43;97333.84;;;12.81;51.12
46722;BME280;32455;43.430;23.136;2023-03-14T15:16:29;97338.56;;;13.01;50.23
46722;BME280;32455;43.430;23.136;2023-03-14T15:19:21;97331.53;;;13.00;51.32
46722;BME280;32455;43.430;23.136;2023-03-14T15:22:14;97327.47;;;12.97;51.02
46722;BME280;32455;43.430;23.136;2023-03-14T15:24:59;97318.94;;;12.73;50.48
46722;BME280;32455;43.430;23.136;2023-03-14T15:27:44;97326.34;;;12.56;52.64